Flight Track Log - Related Links

Times and Time Zones

All times are in EDT time to prevent confusion due to time zone crossing. See the UAL326 flight status page for this flight to view local times or setup timezone preferences in your user account.

Time Position Orientation Groundspeed Altitude Reporting Facility
EDT Latitude Longitude Course Direction KTS MPH feet Rate Location/Type
Sun 06:12:45 PM 33.4333 -112.0333 257° West 171 197 2,100  Level Phoenix TRACON
Sun 06:13:58 PM 33.4167 -112.1167 257° West 207 238 3,300 1,173 Climbing Phoenix TRACON
Sun 06:14:58 PM 33.3667 -112.1833 228° Southwest 282 325 4,700 1,905 Climbing Phoenix TRACON
Sun 06:16:04 PM 33.3008 -112.1550 160° South 290 334 7,300 2,531 Climbing Albuquerque Center
Sun 06:17:06 PM 33.2806 -112.0622 105° East 292 336 10,100 1,935 Climbing Albuquerque Center
Sun 06:18:08 PM 33.2642 -111.9631 101° East 306 352 11,300 1,756 Climbing Albuquerque Center
Sun 06:19:09 PM 33.2389 -111.8228 102° East 359 413 13,700 2,341 Climbing Albuquerque Center
Sun 06:20:11 PM 33.2200 -111.7064 101° East 358 412 16,100 2,226 Climbing Albuquerque Center
Sun 06:21:13 PM 33.1975 -111.5861 103° East 365 420 18,300 2,371 Climbing Albuquerque Center
Sun 06:22:15 PM 33.1667 -111.4669 107° East 386 444 21,000 2,488 Climbing Albuquerque Center
Sun 06:23:16 PM 33.1389 -111.3431 105° East 387 445 23,400 2,000 Climbing Albuquerque Center
Sun 06:24:18 PM 33.1078 -111.2122 106° East 409 471 25,100 1,694 Climbing Albuquerque Center
Sun 06:25:20 PM 33.0553 -111.0556 112° Southeast 428 493 26,900 1,415 Climbing Albuquerque Center
Sun 06:26:21 PM 32.9850 -110.9400 126° Southeast 430 495 28,000 1,073 Climbing Albuquerque Center
Sun 06:27:23 PM 32.9025 -110.8356 133° Southeast 432 497 29,100 968 Climbing Albuquerque Center
Sun 06:28:25 PM 32.8206 -110.7286 132° Southeast 437 503 30,000 774 Climbing Albuquerque Center
Sun 06:29:27 PM 32.7378 -110.6214 133° Southeast 440 506 30,700 878 Climbing Albuquerque Center
Sun 06:30:28 PM 32.6547 -110.5100 132° Southeast 447 514 31,800 1,171 Climbing Albuquerque Center
Sun 06:31:30 PM 32.5744 -110.4000 131° Southeast 444 511 33,100 1,268 Climbing Albuquerque Center
Sun 06:32:31 PM 32.5006 -110.2533 121° Southeast 436 502 34,400 927 Climbing Albuquerque Center
Sun 06:33:33 PM 32.4631 -110.1175 108° East 436 502 35,000 290 Climbing Albuquerque Center
Sun 06:34:35 PM 32.4414 -109.9731 100° East 444 511 35,000  Level Albuquerque Center
Sun 06:35:36 PM 32.4200 -109.8303 100° East 445 512 35,000  Level Albuquerque Center
Sun 06:36:38 PM 32.4000 -109.6958 100° East 445 512 35,000 -48 Level Albuquerque Center
Sun 06:37:40 PM 32.3714 -109.5236 101° East 446 513 34,900  Descending Albuquerque Center
Sun 06:38:41 PM 32.3483 -109.3806 101° East 445 512 35,000  Climbing Albuquerque Center
Sun 06:39:43 PM 32.3261 -109.2375 100° East 445 512 34,900  Descending Albuquerque Center
Sun 06:40:44 PM 32.3031 -109.0936 101° East 446 513 35,000 49 Climbing Albuquerque Center
Sun 06:41:46 PM 32.2794 -108.9508 101° East 445 512 35,000 -49 Level Albuquerque Center
Sun 06:42:47 PM 32.2567 -108.8072 101° East 446 513 34,900  Descending Albuquerque Center
Sun 06:43:49 PM 32.2253 -108.6381 102° East 450 518 35,000 49 Climbing Albuquerque Center
Sun 06:44:50 PM 32.2008 -108.4914 101° East 449 517 35,000  Level Albuquerque Center
Sun 06:45:52 PM 32.1792 -108.3486 100° East 446 513 35,000  Level Albuquerque Center
Sun 06:46:53 PM 32.1558 -108.2056 101° East 447 514 35,000  Level Albuquerque Center
Sun 06:47:55 PM 32.1306 -108.0606 102° East 450 518 35,000  Level Albuquerque Center
Sun 06:48:56 PM 32.1067 -107.9175 101° East 448 516 35,000 -49 Level Albuquerque Center
Sun 06:49:58 PM 32.0822 -107.7744 101° East 448 516 34,900  Descending Albuquerque Center
Sun 06:50:59 PM 32.0572 -107.6317 102° East 449 517 35,000 49 Climbing Albuquerque Center
Sun 06:52:00 PM 32.0283 -107.4600 101° East 449 517 35,000 -49 Level Albuquerque Center
Sun 06:53:02 PM 32.0033 -107.3178 102° East 448 516 34,900  Descending Albuquerque Center
Sun 06:54:03 PM 31.9786 -107.1733 101° East 452 520 35,000 49 Climbing Albuquerque Center
Sun 06:55:05 PM 31.9525 -107.0297 102° East 453 521 35,000  Level Albuquerque Center
Sun 06:56:06 PM 31.9269 -106.8867 102° East 451 519 35,000 -49 Level Albuquerque Center
Sun 06:57:08 PM 31.9008 -106.7461 102° East 445 512 34,900  Descending Albuquerque Center
Sun 06:58:09 PM 31.8747 -106.6039 102° East 446 513 35,000 49 Climbing Albuquerque Center
Sun 06:59:10 PM 31.8453 -106.4306 101° East 458 527 35,000  Level Albuquerque Center
Sun 07:00:12 PM 31.8175 -106.2853 103° East 457 526 35,000  Level Albuquerque Center
Sun 07:01:13 PM 31.7817 -106.1411 106° East 463 533 35,000 -49 Level Albuquerque Center
Sun 07:02:15 PM 31.7458 -106.0006 107° East 452 520 34,900  Descending Albuquerque Center
Sun 07:03:16 PM 31.7097 -105.8583 107° East 453 521 35,000 49 Climbing Albuquerque Center
Sun 07:04:18 PM 31.6736 -105.7147 106° East 457 526 35,000  Level Albuquerque Center
Sun 07:05:19 PM 31.6378 -105.5725 106° East 455 524 35,000 -49 Level Albuquerque Center
Sun 07:06:20 PM 31.6014 -105.4297 107° East 456 525 34,900 -49 Descending Albuquerque Center
Sun 07:07:22 PM 31.5661 -105.2881 106° East 454 522 34,900  Level Albuquerque Center
Sun 07:08:23 PM 31.5242 -105.1183 106° East 451 519 34,900 49 Level Albuquerque Center
Sun 07:09:24 PM 31.4872 -104.9756 107° East 454 522 35,000 49 Climbing Albuquerque Center
Sun 07:10:26 PM 31.4497 -104.8319 107° East 458 527 35,000  Level Albuquerque Center
Sun 07:11:27 PM 31.4128 -104.6886 107° East 458 527 35,000  Level Albuquerque Center
Sun 07:12:28 PM 31.3758 -104.5458 107° East 458 527 35,000 -49 Level Albuquerque Center
Sun 07:13:30 PM 31.3389 -104.4039 107° East 456 525 34,900  Descending Albuquerque Center
Sun 07:14:31 PM 31.3019 -104.2614 107° East 457 526 35,000 49 Climbing Albuquerque Center
Sun 07:15:32 PM 31.2633 -104.1178 107° East 461 531 35,000  Level Albuquerque Center
Sun 07:16:34 PM 31.2247 -103.9747 107° East 461 531 35,000  Level Albuquerque Center
Sun 07:17:35 PM 31.1869 -103.8333 107° East 460 529 35,000 -49 Level Albuquerque Center
Sun 07:18:37 PM 31.1453 -103.6864 108° East 462 532 34,900 -49 Descending Albuquerque Center
Sun 07:19:38 PM 31.0975 -103.5164 108° East 462 532 34,900  Level Albuquerque Center
Sun 07:20:39 PM 31.0594 -103.3744 107° East 462 532 34,900 49 Level Albuquerque Center
Sun 07:21:41 PM 31.0203 -103.2325 108° East 463 533 35,000 49 Climbing Albuquerque Center
Sun 07:22:42 PM 30.9806 -103.0931 108° East 460 529 35,000  Level Albuquerque Center
Sun 07:23:43 PM 30.9436 -102.9519 107° East 458 527 35,000  Level Albuquerque Center
Sun 07:24:45 PM 30.9331 -102.8047 95° East 460 529 35,000  Level Albuquerque Center
Sun 07:25:46 PM 30.9303 -102.6597 91° East 453 521 35,000 -49 Level Albuquerque Center
Sun 07:26:47 PM 30.9267 -102.5144 92° East 453 521 34,900 -49 Descending Albuquerque Center
Sun 07:27:49 PM 30.9231 -102.3417 91° East 451 519 34,900 44 Level Albuquerque Center
Sun 07:29:03 PM 30.9197 -102.1683 91° East 450 518 35,000 44 Climbing Houston Center
Sun 07:30:05 PM 30.9158 -102.0242 92° East 450 518 35,000  Level Houston Center
Sun 07:31:06 PM 30.9133 -101.8808 91° East 449 517 35,000 -49 Level Houston Center
Sun 07:32:08 PM 30.9097 -101.7378 92° East 447 514 34,900 -48 Descending Houston Center
Sun 07:33:10 PM 30.9044 -101.5786 92° East 443 510 34,900  Level Houston Center
Sun 07:34:12 PM 30.9014 -101.4344 91° East 445 512 34,900 48 Level Houston Center
Sun 07:35:14 PM 30.8972 -101.2892 92° East 448 516 35,000 49 Climbing Houston Center
Sun 07:36:15 PM 30.8925 -101.1428 92° East 451 519 35,000  Level Houston Center
Sun 07:37:17 PM 30.8889 -100.9944 92° East 455 524 35,000 -48 Level Houston Center
Sun 07:38:19 PM 30.8822 -100.8169 92° East 458 527 34,900  Descending Houston Center
Sun 07:39:21 PM 30.8769 -100.6667 92° East 463 533 35,000 48 Climbing Houston Center
Sun 07:40:23 PM 30.8719 -100.5169 92° East 462 532 35,000  Level Houston Center
Sun 07:41:24 PM 30.8658 -100.3669 93° East 463 533 35,000 -49 Level Houston Center
Sun 07:42:26 PM 30.8606 -100.2175 92° East 462 532 34,900 -48 Descending Houston Center
Sun 07:43:28 PM 30.8556 -100.0672 92° East 465 535 34,900 48 Level Houston Center
Sun 07:44:30 PM 30.8497 -99.9156 93° East 468 539 35,000  Climbing Houston Center
Sun 07:45:31 PM 30.8428 -99.7647 93° East 468 539 34,900  Descending Houston Center
Sun 07:46:33 PM 30.8347 -99.5831 93° East 468 539 35,000  Climbing Houston Center
Sun 07:47:35 PM 30.8278 -99.4331 93° East 464 534 34,900 -48 Descending Houston Center
Sun 07:48:37 PM 30.8217 -99.2844 93° East 461 531 34,900 49 Level Houston Center
Sun 07:49:38 PM 30.8136 -99.1464 94° East 460 529 35,000 49 Climbing Houston Center
Sun 07:50:40 PM 30.8064 -98.9706 93° East 460 529 35,000  Level Houston Center
Sun 07:51:42 PM 30.7975 -98.8206 94° East 462 532 35,000  Level Houston Center
Sun 07:52:44 PM 30.7989 -98.6703 89° East 462 532 35,000  Level Houston Center
Sun 07:53:45 PM 30.8025 -98.5203 88° East 460 529 35,000  Level Houston Center
Sun 07:54:47 PM 30.8050 -98.3708 89° East 461 531 35,000  Level Houston Center
Sun 07:55:49 PM 30.8075 -98.2192 89° East 463 533 35,000  Level Houston Center
Sun 07:56:50 PM 30.8094 -98.0689 89° East 462 532 35,000  Level Houston Center
Sun 07:57:52 PM 30.8119 -97.9167 89° East 467 537 35,000  Level Houston Center
Sun 07:58:54 PM 30.8139 -97.7619 89° East 472 543 35,000  Level Houston Center
Sun 07:59:55 PM 30.8153 -97.5833 89° East 472 543 35,000  Level Houston Center
Sun 08:00:57 PM 30.8158 -97.4311 90° East 471 542 35,000 -919 Level Houston Center
Sun 08:01:59 PM 30.8169 -97.2772 89° East 480 552 33,100 -2,390 Descending Houston Center
Sun 08:03:00 PM 30.7936 -97.1239 100° East 487 560 30,100 -2,537 Descending Houston Center
Sun 08:04:02 PM 30.7550 -96.9753 107° East 480 552 27,900 -2,081 Descending Houston Center
Sun 08:05:04 PM 30.7161 -96.8333 108° East 461 531 25,800 -2,516 Descending Houston Center
Sun 08:06:06 PM 30.6800 -96.6958 107° East 446 513 22,700 -2,293 Descending Houston Center
Sun 08:07:07 PM 30.6389 -96.5422 107° East 426 490 21,100 -1,610 Descending Houston Center
Sun 08:08:09 PM 30.6058 -96.4183 107° East 403 464 19,400 -1,645 Descending Houston Center
Sun 08:09:11 PM 30.5728 -96.2978 108° East 389 448 17,700 -1,645 Descending Houston Center
Sun 08:10:13 PM 30.5403 -96.1789 108° East 384 442 16,000 -1,838 Descending Houston Center
Sun 08:11:02 PM 30.5142 -96.0836 108° East 364 419 14,300 -1,415 Descending Houston Center
Sun 08:12:16 PM 30.4808 -95.9606 107° East 360 414 13,100 -1,131 Descending Houston Center
Sun 08:13:04 PM 30.4467 -95.8614 112° Southeast 355 409 12,000 -574 Descending Houston Center
Sun 08:14:11 PM 30.3725 -95.7803 137° Southeast 321 369 12,000 -375 Level Houston Center
Sun 08:15:12 PM 30.3075 -95.7106 137° Southeast 314 361 11,200 -1,073 Descending Houston Center
Sun 08:16:14 PM 30.2406 -95.6411 138° Southeast 308 354 9,800 -1,317 Descending Houston Center
Sun 08:17:15 PM 30.1803 -95.5781 138° Southeast 296 341 8,500 -1,263 Descending Houston Center
Sun 08:18:27 PM 30.1172 -95.5106 137° Southeast 290 334 7,000 -738 Descending Houston Center
Sun 08:19:17 PM 30.1064 -95.4322 99° East 252 290 7,000 -541 Level Houston Center
Sun 08:20:18 PM 30.1058 -95.3575 90° East 231 266 6,000 -496 Descending Houston Center
Sun 08:21:18 PM 30.1047 -95.2781 91° East 229 264 6,000 -545 Level Houston Center
Sun 08:22:19 PM 30.0919 -95.2069 102° East 225 259 4,900 -1,122 Descending Houston Center
Sun 08:23:21 PM 30.0731 -95.1394 108° East 214 246 3,700 -934 Descending Houston Center
Sun 08:24:21 PM 30.0364 -95.1294 167° South 187 215 3,000 -744 Descending Houston Center
Sun 08:25:22 PM 30.0144 -95.1875 246° West 196 226 2,200 -787 Descending Houston Center

Login

Don't have an account? Register now (free) for customized features, flight alerts, and more!